createdAt,value
2022-12-31T00:00:07.740Z,11.40
2022-12-31T00:02:36.191Z,11.40
2022-12-31T00:05:04.484Z,11.40
2022-12-31T00:10:05.168Z,11.40
2022-12-31T00:12:32.591Z,11.40
2022-12-31T00:14:59.967Z,11.40
2022-12-31T00:17:27.363Z,11.40
2022-12-31T00:19:54.713Z,11.50
2022-12-31T00:22:22.130Z,11.50
2022-12-31T00:24:49.500Z,11.50
2022-12-31T00:27:16.961Z,11.50
2022-12-31T00:29:44.326Z,11.50
2022-12-31T00:32:11.664Z,11.60
2022-12-31T00:34:39.079Z,11.60
2022-12-31T00:37:06.484Z,11.60
2022-12-31T00:39:33.865Z,11.60
2022-12-31T00:42:01.207Z,11.60
2022-12-31T00:44:28.534Z,11.60
2022-12-31T00:46:55.907Z,11.60
2022-12-31T00:49:23.276Z,11.60
2022-12-31T00:51:50.719Z,11.60
2022-12-31T00:54:18.060Z,11.60
2022-12-31T00:56:45.418Z,11.60
2022-12-31T00:59:12.807Z,11.70
2022-12-31T01:01:40.989Z,11.70
2022-12-31T01:04:18.094Z,11.70
2022-12-31T01:06:46.506Z,11.70
2022-12-31T01:09:15.382Z,11.70
2022-12-31T01:11:43.324Z,11.70
2022-12-31T01:14:16.195Z,11.60
2022-12-31T01:16:46.307Z,11.60
2022-12-31T01:19:26.479Z,11.50
2022-12-31T01:21:54.557Z,11.60
2022-12-31T01:24:22.055Z,11.50
2022-12-31T01:26:50.885Z,11.50
2022-12-31T01:29:18.915Z,11.50
2022-12-31T01:31:46.544Z,11.40
2022-12-31T01:34:14.008Z,11.40
2022-12-31T01:36:41.348Z,11.30
2022-12-31T01:39:09.310Z,11.30
2022-12-31T01:41:40.141Z,11.30
2022-12-31T01:44:13.240Z,11.30
2022-12-31T01:47:00.849Z,11.20
2022-12-31T01:49:40.887Z,11.20
2022-12-31T01:52:19.966Z,11.10
2022-12-31T01:54:59.534Z,11.10
2022-12-31T01:57:27.610Z,11.10
2022-12-31T01:59:56.360Z,11.00
2022-12-31T02:02:23.966Z,11.00
2022-12-31T02:04:55.463Z,11.00
2022-12-31T02:07:23.246Z,11.00
2022-12-31T02:09:50.765Z,11.00
2022-12-31T02:12:18.171Z,10.90
2022-12-31T02:14:50.555Z,10.90
2022-12-31T02:17:32.955Z,10.90
2022-12-31T02:20:27.620Z,10.90
2022-12-31T02:23:31.715Z,10.90
2022-12-31T02:26:29.336Z,10.90
2022-12-31T02:29:34.851Z,10.90
2022-12-31T02:32:31.906Z,10.90
2022-12-31T02:35:18.680Z,10.90
2022-12-31T02:37:50.328Z,10.90
2022-12-31T02:40:21.121Z,10.90
2022-12-31T02:42:54.918Z,10.90
2022-12-31T02:45:30.384Z,10.90
2022-12-31T02:48:31.048Z,11.00
2022-12-31T02:51:12.337Z,11.00
2022-12-31T02:54:00.307Z,11.00
2022-12-31T02:56:39.341Z,11.00
2022-12-31T02:59:44.818Z,11.00
2022-12-31T03:02:16.937Z,11.10
2022-12-31T03:04:52.586Z,11.10
2022-12-31T03:07:31.979Z,11.10
2022-12-31T03:10:01.030Z,11.20
2022-12-31T03:12:49.260Z,11.10
2022-12-31T03:15:25.526Z,11.10
2022-12-31T03:18:14.785Z,11.10
2022-12-31T03:21:03.381Z,11.10
2022-12-31T03:23:42.283Z,11.10
2022-12-31T03:26:11.465Z,11.10
2022-12-31T03:28:41.500Z,11.10
2022-12-31T03:31:09.186Z,11.10
2022-12-31T03:33:40.002Z,11.10
2022-12-31T03:36:13.607Z,11.10
2022-12-31T03:38:41.527Z,11.10
2022-12-31T03:41:11.103Z,11.10
2022-12-31T03:43:38.691Z,11.10
2022-12-31T03:46:06.119Z,11.10
2022-12-31T03:48:33.468Z,11.20
2022-12-31T03:51:00.801Z,11.10
2022-12-31T03:53:28.138Z,11.10
2022-12-31T03:55:55.791Z,11.20
2022-12-31T03:58:23.311Z,11.10
2022-12-31T04:00:50.765Z,11.20
2022-12-31T04:03:18.524Z,11.20
2022-12-31T04:05:55.613Z,11.20
2022-12-31T04:08:23.881Z,11.20
2022-12-31T04:10:51.331Z,11.20
2022-12-31T04:13:18.819Z,11.20
2022-12-31T04:15:49.067Z,11.20
2022-12-31T04:18:16.598Z,11.20
2022-12-31T04:20:43.929Z,11.20
2022-12-31T04:23:11.261Z,11.30
2022-12-31T04:25:38.921Z,11.30
2022-12-31T04:28:06.307Z,11.30
2022-12-31T04:30:33.652Z,11.40
2022-12-31T04:33:01.001Z,11.40
2022-12-31T04:35:28.399Z,11.50
2022-12-31T04:37:55.750Z,11.50
2022-12-31T04:40:23.065Z,11.50
2022-12-31T04:42:50.393Z,11.60
2022-12-31T04:45:17.794Z,11.70
2022-12-31T04:47:45.308Z,11.70
2022-12-31T04:50:12.660Z,11.90
2022-12-31T04:52:42.947Z,11.90
2022-12-31T04:55:11.228Z,12.00
2022-12-31T04:57:38.880Z,12.20
2022-12-31T05:00:06.871Z,12.30
2022-12-31T05:02:34.378Z,12.40
2022-12-31T05:05:01.855Z,12.40
2022-12-31T05:07:29.325Z,12.50
2022-12-31T05:09:56.652Z,12.50
2022-12-31T05:12:24.004Z,12.60
2022-12-31T05:14:51.345Z,12.70
2022-12-31T05:17:20.711Z,12.80
2022-12-31T05:19:48.048Z,12.90
2022-12-31T05:22:30.743Z,13.00
2022-12-31T05:24:59.292Z,13.10
2022-12-31T05:27:28.129Z,13.10
2022-12-31T05:29:55.577Z,13.20
2022-12-31T05:32:22.940Z,13.40
2022-12-31T05:34:50.320Z,13.50
2022-12-31T05:37:17.647Z,13.50
2022-12-31T05:39:45.051Z,13.60
2022-12-31T05:42:12.397Z,13.60
2022-12-31T05:44:39.781Z,13.70
2022-12-31T05:47:07.158Z,13.70
2022-12-31T05:49:34.574Z,13.80
2022-12-31T05:52:02.068Z,13.80
2022-12-31T05:54:29.503Z,13.80
2022-12-31T05:56:56.942Z,13.80
2022-12-31T05:59:24.532Z,13.90
2022-12-31T06:01:52.037Z,14.00
2022-12-31T06:04:19.398Z,14.00
2022-12-31T06:06:46.816Z,14.00
2022-12-31T06:09:15.493Z,14.00
2022-12-31T06:11:43.292Z,14.00
2022-12-31T06:14:10.835Z,13.90
2022-12-31T06:16:40.006Z,14.00
2022-12-31T06:19:07.787Z,14.00
2022-12-31T06:21:35.487Z,14.00
2022-12-31T06:24:02.894Z,14.00
2022-12-31T06:26:30.236Z,14.00
2022-12-31T06:28:57.579Z,14.00
2022-12-31T06:31:25.009Z,14.00
2022-12-31T06:33:52.460Z,14.00
2022-12-31T06:36:21.873Z,14.00
2022-12-31T06:38:49.802Z,14.00
2022-12-31T06:41:18.401Z,14.00
2022-12-31T06:43:46.166Z,14.00
2022-12-31T06:46:16.608Z,14.00
2022-12-31T06:48:44.997Z,14.00
2022-12-31T06:51:18.913Z,14.00
2022-12-31T06:53:48.344Z,14.00
2022-12-31T06:56:31.306Z,13.90
2022-12-31T06:59:01.025Z,13.90
2022-12-31T07:01:49.371Z,14.00
2022-12-31T07:04:49.695Z,13.90
2022-12-31T07:07:39.902Z,14.00
2022-12-31T07:10:36.745Z,14.00
2022-12-31T07:13:15.888Z,13.90
2022-12-31T07:16:11.298Z,13.90
2022-12-31T07:19:01.779Z,14.00
2022-12-31T07:21:38.428Z,14.00
2022-12-31T07:24:10.604Z,14.00
2022-12-31T07:27:01.845Z,13.90
2022-12-31T07:29:47.584Z,14.00
2022-12-31T07:32:23.667Z,13.90
2022-12-31T07:35:04.414Z,13.90
2022-12-31T07:38:00.530Z,13.90
2022-12-31T07:40:36.300Z,13.90
2022-12-31T07:43:15.864Z,13.80
2022-12-31T07:46:06.421Z,13.80
2022-12-31T07:48:34.131Z,13.80
2022-12-31T07:51:01.856Z,13.80
2022-12-31T07:53:29.557Z,13.80
2022-12-31T07:56:00.040Z,13.80
2022-12-31T07:58:51.096Z,13.90
2022-12-31T08:01:30.665Z,13.80
2022-12-31T08:04:38.123Z,13.80
2022-12-31T08:07:47.259Z,13.80
2022-12-31T08:10:45.458Z,13.80
2022-12-31T08:13:13.069Z,13.80
2022-12-31T08:15:41.217Z,13.80
2022-12-31T08:18:08.838Z,13.80
2022-12-31T08:20:54.417Z,13.80
2022-12-31T08:23:28.295Z,13.80
2022-12-31T08:26:05.028Z,13.90
2022-12-31T08:28:52.631Z,13.90
2022-12-31T08:31:27.112Z,13.90
2022-12-31T08:34:05.983Z,13.90
2022-12-31T08:36:47.893Z,14.00
2022-12-31T08:39:29.978Z,14.00
2022-12-31T08:41:58.726Z,14.00
2022-12-31T08:45:02.187Z,14.00
2022-12-31T08:47:56.463Z,14.00
2022-12-31T08:50:27.994Z,14.00
2022-12-31T08:52:55.668Z,14.00
2022-12-31T08:55:24.924Z,14.00
2022-12-31T08:58:01.342Z,14.00
2022-12-31T09:00:30.078Z,14.00
2022-12-31T09:03:13.279Z,14.00
2022-12-31T09:05:58.221Z,14.00
2022-12-31T09:08:31.673Z,14.00
2022-12-31T09:11:23.445Z,14.00
2022-12-31T09:14:26.083Z,13.90
2022-12-31T09:17:04.589Z,13.90
2022-12-31T09:19:32.011Z,13.90
2022-12-31T09:21:59.601Z,13.90
2022-12-31T09:24:27.323Z,14.00
2022-12-31T09:27:11.630Z,13.90
2022-12-31T09:30:08.555Z,13.90
2022-12-31T09:32:46.252Z,13.90
2022-12-31T09:35:20.054Z,13.90
2022-12-31T09:37:50.008Z,13.80
2022-12-31T09:40:29.125Z,13.90
2022-12-31T09:43:05.234Z,13.80
2022-12-31T09:45:56.872Z,13.80
2022-12-31T09:48:45.724Z,13.80
2022-12-31T09:51:25.324Z,13.80
2022-12-31T09:54:32.809Z,13.80
2022-12-31T09:57:35.882Z,13.80
2022-12-31T10:00:10.970Z,13.80
2022-12-31T10:03:00.867Z,13.80
2022-12-31T10:05:45.906Z,13.70
2022-12-31T10:08:40.701Z,13.70
2022-12-31T10:11:39.723Z,13.60
2022-12-31T10:14:38.933Z,13.60
2022-12-31T10:17:12.600Z,13.60
2022-12-31T10:19:45.217Z,13.50
2022-12-31T10:22:51.118Z,13.40
2022-12-31T10:25:38.943Z,13.40
2022-12-31T10:28:30.950Z,13.30
2022-12-31T10:31:10.440Z,13.30
2022-12-31T10:33:59.219Z,13.30
2022-12-31T10:36:30.814Z,13.30
2022-12-31T10:39:45.521Z,13.30
2022-12-31T10:42:37.467Z,13.30
2022-12-31T10:45:23.568Z,13.40
2022-12-31T10:48:03.993Z,13.30
2022-12-31T10:50:46.053Z,13.30
2022-12-31T10:53:31.136Z,13.30
2022-12-31T10:56:22.165Z,13.30
2022-12-31T10:59:11.264Z,13.30
2022-12-31T11:02:03.160Z,13.30
2022-12-31T11:04:45.341Z,13.30
2022-12-31T11:07:18.827Z,13.20
2022-12-31T11:10:03.617Z,13.20
2022-12-31T11:12:49.715Z,13.20
2022-12-31T11:15:36.534Z,13.10
2022-12-31T11:18:39.567Z,13.10
2022-12-31T11:21:21.673Z,13.10
2022-12-31T11:23:59.168Z,13.10
2022-12-31T11:27:01.368Z,13.10
2022-12-31T11:29:38.285Z,13.10
2022-12-31T11:32:28.969Z,13.10
2022-12-31T11:35:01.839Z,13.10
2022-12-31T11:37:32.456Z,13.10
2022-12-31T11:40:27.615Z,13.00
2022-12-31T11:42:58.804Z,13.00
2022-12-31T11:45:50.922Z,12.90
2022-12-31T11:48:46.148Z,12.90
2022-12-31T11:51:27.828Z,12.90
2022-12-31T11:54:27.984Z,12.80
2022-12-31T11:57:23.363Z,12.80
2022-12-31T12:00:20.285Z,12.80
2022-12-31T12:02:50.738Z,12.70
2022-12-31T12:05:24.473Z,12.70
2022-12-31T12:07:52.440Z,12.60
2022-12-31T12:10:31.977Z,12.60
2022-12-31T12:13:30.715Z,12.60
2022-12-31T12:16:00.647Z,12.60
2022-12-31T12:18:47.350Z,12.60
2022-12-31T12:21:17.436Z,12.50
2022-12-31T12:24:05.325Z,12.50
2022-12-31T12:26:41.707Z,12.50
2022-12-31T12:29:16.251Z,12.40
2022-12-31T12:31:58.694Z,12.50
2022-12-31T12:34:37.534Z,12.50
2022-12-31T12:37:21.427Z,12.50
2022-12-31T12:39:57.272Z,12.50
2022-12-31T12:42:25.080Z,12.50
2022-12-31T12:45:11.134Z,12.50
2022-12-31T12:47:45.758Z,12.50
2022-12-31T12:50:42.074Z,12.60
2022-12-31T12:53:21.199Z,12.70
2022-12-31T12:56:02.932Z,12.70
2022-12-31T12:59:12.587Z,12.70
2022-12-31T13:01:52.029Z,12.80
2022-12-31T13:04:39.342Z,12.90
2022-12-31T13:07:22.126Z,12.80
2022-12-31T13:09:49.479Z,12.90
2022-12-31T13:12:56.865Z,12.90
2022-12-31T13:15:46.781Z,12.90
2022-12-31T13:18:32.462Z,12.90
2022-12-31T13:21:35.385Z,12.90
2022-12-31T13:24:22.834Z,12.90
2022-12-31T13:27:11.764Z,13.00
2022-12-31T13:29:41.391Z,12.90
2022-12-31T13:32:12.605Z,12.90
2022-12-31T13:34:44.336Z,12.90
2022-12-31T13:37:37.845Z,12.90
2022-12-31T13:40:31.869Z,12.90
2022-12-31T13:43:08.456Z,12.90
2022-12-31T13:45:43.074Z,12.90
2022-12-31T13:48:18.512Z,12.80
2022-12-31T13:51:00.512Z,12.80
2022-12-31T13:53:46.725Z,12.80
2022-12-31T13:56:19.932Z,12.70
2022-12-31T13:59:14.984Z,12.80
2022-12-31T14:01:57.874Z,12.70
2022-12-31T14:04:37.982Z,12.70
2022-12-31T14:07:21.173Z,12.70
2022-12-31T14:09:48.864Z,12.70
2022-12-31T14:12:32.799Z,12.70
2022-12-31T14:15:35.261Z,12.70
2022-12-31T14:18:14.887Z,12.70
2022-12-31T14:20:49.635Z,12.70
2022-12-31T14:23:44.778Z,12.70
2022-12-31T14:26:46.720Z,12.60
2022-12-31T14:29:41.278Z,12.60
2022-12-31T14:32:36.403Z,12.60
2022-12-31T14:35:23.925Z,12.60
2022-12-31T14:38:15.711Z,12.60
2022-12-31T14:41:12.038Z,12.60
2022-12-31T14:43:51.031Z,12.60
2022-12-31T14:46:39.800Z,12.60
2022-12-31T14:49:36.505Z,12.60
2022-12-31T14:52:15.605Z,12.60
2022-12-31T14:54:43.075Z,12.60
2022-12-31T14:57:21.576Z,12.60
2022-12-31T14:59:57.842Z,12.50
2022-12-31T15:02:34.753Z,12.60
2022-12-31T15:05:11.071Z,12.60
2022-12-31T15:07:52.625Z,12.60
2022-12-31T15:10:40.390Z,12.50
2022-12-31T15:13:27.408Z,12.60
2022-12-31T15:16:24.307Z,12.50
2022-12-31T15:18:57.733Z,12.60
2022-12-31T15:21:43.762Z,12.60
2022-12-31T15:24:26.925Z,12.60
2022-12-31T15:27:03.054Z,12.50
2022-12-31T15:29:32.411Z,12.60
2022-12-31T15:32:03.275Z,12.50
2022-12-31T15:34:33.752Z,12.60
2022-12-31T15:37:06.794Z,12.60
2022-12-31T15:39:40.175Z,12.50
2022-12-31T15:42:43.369Z,12.50
2022-12-31T15:45:27.545Z,12.50
2022-12-31T15:48:00.845Z,12.50
2022-12-31T15:50:29.904Z,12.50
2022-12-31T15:53:02.725Z,12.60
2022-12-31T15:55:44.271Z,12.50
2022-12-31T15:58:15.705Z,12.50
2022-12-31T16:01:01.622Z,12.50
2022-12-31T16:03:31.762Z,12.40
2022-12-31T16:06:08.288Z,12.40
2022-12-31T16:08:36.088Z,12.30
2022-12-31T16:11:06.026Z,12.20
2022-12-31T16:13:36.606Z,12.20
2022-12-31T16:16:06.960Z,12.20
2022-12-31T16:18:41.409Z,12.10
2022-12-31T16:21:29.112Z,12.10
2022-12-31T16:24:00.004Z,12.10
2022-12-31T16:26:47.727Z,12.10
2022-12-31T16:29:18.010Z,12.00
2022-12-31T16:31:46.931Z,12.00
2022-12-31T16:34:21.972Z,12.00
2022-12-31T16:37:17.303Z,12.00
2022-12-31T16:39:56.950Z,12.00
2022-12-31T16:42:26.946Z,12.00
2022-12-31T16:44:56.024Z,12.00
2022-12-31T16:47:34.091Z,12.00
2022-12-31T16:50:16.891Z,12.00
2022-12-31T16:52:48.302Z,12.00
2022-12-31T16:55:21.755Z,12.00
2022-12-31T16:57:55.669Z,12.00
2022-12-31T17:00:25.371Z,12.00
2022-12-31T17:03:00.976Z,12.00
2022-12-31T17:05:28.767Z,12.00
2022-12-31T17:07:56.438Z,12.00
2022-12-31T17:10:23.798Z,11.90
2022-12-31T17:15:45.550Z,11.90
2022-12-31T17:18:25.502Z,11.90
2022-12-31T17:20:55.077Z,11.90
2022-12-31T17:23:33.508Z,12.00
2022-12-31T17:26:09.014Z,12.00
2022-12-31T17:28:48.441Z,12.00
2022-12-31T17:31:38.125Z,12.10
2022-12-31T17:34:14.539Z,12.10
2022-12-31T17:36:52.319Z,12.10
2022-12-31T17:39:22.889Z,12.20
2022-12-31T17:41:52.650Z,12.20
2022-12-31T17:44:23.649Z,12.30
2022-12-31T17:46:51.299Z,12.30
2022-12-31T17:49:22.189Z,12.20
2022-12-31T17:51:49.537Z,12.30
2022-12-31T17:54:18.624Z,12.20
2022-12-31T17:56:46.285Z,12.20
2022-12-31T17:59:23.774Z,12.20
2022-12-31T18:01:51.525Z,12.20
2022-12-31T18:04:20.763Z,12.20
2022-12-31T18:06:48.254Z,12.20
2022-12-31T18:09:16.433Z,12.30
2022-12-31T18:11:45.021Z,12.30
2022-12-31T18:14:16.823Z,12.30
2022-12-31T18:16:44.426Z,12.40
2022-12-31T18:19:45.784Z,12.40
2022-12-31T18:22:03.348Z,12.40
2022-12-31T18:24:30.737Z,12.50
2022-12-31T18:26:58.170Z,12.50
2022-12-31T18:29:25.479Z,12.60
2022-12-31T18:31:53.901Z,12.60
2022-12-31T18:34:21.315Z,12.60
2022-12-31T18:36:48.676Z,12.70
2022-12-31T18:39:16.065Z,12.70
2022-12-31T18:41:51.193Z,12.70
2022-12-31T18:44:18.787Z,12.60
2022-12-31T18:46:46.109Z,12.60
2022-12-31T18:49:13.478Z,12.60
2022-12-31T18:51:40.911Z,12.60
2022-12-31T18:54:11.503Z,12.70
2022-12-31T18:56:44.821Z,12.70
2022-12-31T18:59:14.576Z,12.70
2022-12-31T19:01:42.271Z,12.70
2022-12-31T19:04:13.982Z,12.70
2022-12-31T19:06:41.429Z,12.70
2022-12-31T19:09:30.359Z,12.70
2022-12-31T19:11:56.381Z,12.80
2022-12-31T19:14:25.830Z,12.80
2022-12-31T19:16:54.532Z,12.90
2022-12-31T19:19:22.230Z,12.90
2022-12-31T19:21:49.566Z,12.90
2022-12-31T19:24:26.572Z,13.00
2022-12-31T19:26:54.874Z,13.10
2022-12-31T19:29:27.674Z,13.10
2022-12-31T19:31:55.255Z,13.10
2022-12-31T19:34:22.674Z,13.20
2022-12-31T19:36:50.017Z,13.10
2022-12-31T19:39:20.037Z,13.20
2022-12-31T19:41:56.581Z,13.30
2022-12-31T19:44:26.688Z,13.30
2022-12-31T19:46:54.267Z,13.40
2022-12-31T19:49:21.646Z,13.40
2022-12-31T19:51:49.003Z,13.40
2022-12-31T19:54:16.347Z,13.40
2022-12-31T19:56:43.713Z,13.50
2022-12-31T19:59:11.247Z,13.60
2022-12-31T20:01:38.857Z,13.60
2022-12-31T20:04:06.433Z,13.60
2022-12-31T20:06:33.922Z,13.60
2022-12-31T20:09:02.986Z,13.50
2022-12-31T20:11:30.420Z,13.60
2022-12-31T20:13:57.958Z,13.60
2022-12-31T20:16:31.638Z,13.60
2022-12-31T20:18:59.218Z,13.60
2022-12-31T20:21:28.310Z,13.60
2022-12-31T20:23:56.329Z,13.60
2022-12-31T20:26:24.446Z,13.60
2022-12-31T20:28:52.519Z,13.70
2022-12-31T20:31:22.872Z,13.60
2022-12-31T20:33:50.363Z,13.60
2022-12-31T20:36:18.249Z,13.60
2022-12-31T20:38:46.250Z,13.50
2022-12-31T20:41:23.350Z,13.50
2022-12-31T20:43:51.365Z,13.50
2022-12-31T20:46:21.896Z,13.50
2022-12-31T20:48:51.683Z,13.40
2022-12-31T20:51:20.047Z,13.40
2022-12-31T20:53:59.106Z,13.40
2022-12-31T20:56:29.020Z,13.40
2022-12-31T20:58:56.778Z,13.30
2022-12-31T21:01:25.596Z,13.30
2022-12-31T21:04:05.028Z,13.30
2022-12-31T21:06:35.389Z,13.30
2022-12-31T21:09:05.823Z,13.30
2022-12-31T21:11:52.823Z,13.30
2022-12-31T21:14:20.260Z,13.20
2022-12-31T21:16:47.663Z,13.20
2022-12-31T21:19:15.050Z,13.20
2022-12-31T21:21:42.603Z,13.10
2022-12-31T21:24:10.264Z,13.10
2022-12-31T21:26:37.691Z,13.10
2022-12-31T21:29:04.995Z,13.10
2022-12-31T21:31:32.415Z,13.10
2022-12-31T21:33:59.898Z,13.10
2022-12-31T21:36:27.293Z,13.10
2022-12-31T21:38:54.621Z,13.10
2022-12-31T21:41:40.353Z,13.00
2022-12-31T21:44:07.700Z,13.00
2022-12-31T21:46:35.123Z,13.00
2022-12-31T21:49:02.746Z,13.00
2022-12-31T21:51:30.354Z,13.00
2022-12-31T21:53:57.794Z,12.90
2022-12-31T21:56:25.620Z,12.90
2022-12-31T21:59:16.842Z,12.90
2022-12-31T22:02:02.979Z,12.90
2022-12-31T22:07:18.050Z,12.80
2022-12-31T22:09:45.395Z,12.80
2022-12-31T22:12:12.772Z,12.80
2022-12-31T22:15:14.846Z,12.80
2022-12-31T22:17:28.419Z,12.70
2022-12-31T22:22:43.078Z,12.70
2022-12-31T22:25:10.417Z,12.60
2022-12-31T22:27:37.781Z,12.60
2022-12-31T22:30:06.578Z,12.70
2022-12-31T22:32:33.985Z,12.60
2022-12-31T22:35:01.430Z,12.60
2022-12-31T22:37:55.765Z,12.60
2022-12-31T22:40:17.244Z,12.60
2022-12-31T22:42:45.757Z,12.60
2022-12-31T22:45:13.117Z,12.60
2022-12-31T22:47:40.539Z,12.60
2022-12-31T22:50:08.357Z,12.60
2022-12-31T22:52:35.729Z,12.50
2022-12-31T22:55:03.421Z,12.60
2022-12-31T22:57:30.844Z,12.60
2022-12-31T22:59:58.199Z,12.60
2022-12-31T23:02:25.732Z,12.60
2022-12-31T23:04:53.314Z,12.50
2022-12-31T23:07:40.812Z,12.60
2022-12-31T23:10:29.249Z,12.60
2022-12-31T23:12:56.649Z,12.60
2022-12-31T23:15:42.392Z,12.50
2022-12-31T23:18:28.272Z,12.50
2022-12-31T23:21:14.152Z,12.50
2022-12-31T23:23:41.508Z,12.50
2022-12-31T23:26:08.918Z,12.50
2022-12-31T23:28:36.449Z,12.50
2022-12-31T23:31:06.498Z,12.50
2022-12-31T23:33:33.927Z,12.50
2022-12-31T23:36:06.089Z,12.50
2022-12-31T23:38:33.489Z,12.50
2022-12-31T23:41:00.837Z,12.50
2022-12-31T23:43:28.169Z,12.50
2022-12-31T23:45:55.713Z,12.40
2022-12-31T23:48:23.121Z,12.40
2022-12-31T23:50:53.933Z,12.40
2022-12-31T23:53:23.241Z,12.40
2022-12-31T23:55:51.476Z,12.50
2022-12-31T23:58:19.018Z,12.50
